Ishigaki Airport
ROIG : now visible

Airfield :











YOU CAN JOIN US ON...

 
LOGIN :

Register | Disclaimer

   EN    FR    IT 

 









Legend :    VFR   Marginal VFR   IFR   Intensive IFR   Very Intensive IFR
Visi :
Ceiling :
>= 8 km
>= 3000ft
5 to 8 km
1000 to 3000 ft
1500m to 5 km
500 to 1000 ft
800 to 1500m
200 to 500 ft
< 800m
< 200 ft
Symbols :   Thunderstorms  Fog  Heavy snow  Heavy precipitations  Wind > 20 kt







- Airport Elevation : 93 ft
- IATA code : ISG


ROIG - Ishigaki

CURRENT METAR :
  • 210600Z 16012KT 9999 FEW011 SCT016 31/27 Q1005

EXPIRED METARs :
  • 210500Z 16012KT 9999 FEW016 SCT/// 31/27 Q1005
  • 210400Z 18011KT 150V210 9999 VCSH FEW016 BKN/// 31/27 Q1006

TAF TAF ROIG
Valid from the 21 at 06:00 until the 22 at 12:00 UTC


210506Z 2106/2212 18010KT 9999 FEW015 SCT020
BECMG 2206/2209 11006KT
No reported NOTAMs for that airfield.



MET'MAP, your aeronautical weather chart ! - Copyright ORBIFLY December 2007 - Disclaimer

ORBIFLY MET'MAP TEAM :

Programming & Development : Alexandra Zaïnal
Concept & Development : Baudouin d'Aumeries
Co-Development & Prog : Marc-Olivier Méhu
Technical & hardware support : Manuel Goepfert

Contact : metmap@orbifly.com




SOURCES & CREDITS :

   NOAA       Earth
Advisory